sensor_id;sensor_type;location;lat;lon;timestamp;temperature;humidity
37356;DHT22;48747;50.250;18.848;2022-12-18T00:00:17;-3.60;99.90
37356;DHT22;48747;50.250;18.848;2022-12-18T00:02:20;-3.60;99.90
37356;DHT22;48747;50.250;18.848;2022-12-18T00:04:25;-3.60;99.90
37356;DHT22;48747;50.250;18.848;2022-12-18T00:06:29;-3.60;99.90
37356;DHT22;48747;50.250;18.848;2022-12-18T00:08:32;-3.60;99.90
37356;DHT22;48747;50.250;18.848;2022-12-18T00:10:35;-3.60;99.90
37356;DHT22;48747;50.250;18.848;2022-12-18T00:12:38;-3.70;99.90
37356;DHT22;48747;50.250;18.848;2022-12-18T00:14:42;-3.60;99.90
37356;DHT22;48747;50.250;18.848;2022-12-18T00:16:46;-3.60;99.90
37356;DHT22;48747;50.250;18.848;2022-12-18T00:18:50;-3.60;99.90
37356;DHT22;48747;50.250;18.848;2022-12-18T00:20:54;-3.60;99.90
37356;DHT22;48747;50.250;18.848;2022-12-18T00:22:58;-3.60;99.90
37356;DHT22;48747;50.250;18.848;2022-12-18T00:25:01;-3.60;99.90
37356;DHT22;48747;50.250;18.848;2022-12-18T00:27:05;-3.60;99.90
37356;DHT22;48747;50.250;18.848;2022-12-18T00:29:10;-3.60;99.90
37356;DHT22;48747;50.250;18.848;2022-12-18T00:31:18;-3.60;99.90
37356;DHT22;48747;50.250;18.848;2022-12-18T00:33:21;-3.50;99.90
37356;DHT22;48747;50.250;18.848;2022-12-18T00:35:24;-3.60;99.90
37356;DHT22;48747;50.250;18.848;2022-12-18T00:37:27;-3.60;99.90
37356;DHT22;48747;50.250;18.848;2022-12-18T00:39:30;-3.60;99.90
37356;DHT22;48747;50.250;18.848;2022-12-18T00:41:33;-3.50;99.90
37356;DHT22;48747;50.250;18.848;2022-12-18T00:43:55;-3.50;99.90
37356;DHT22;48747;50.250;18.848;2022-12-18T00:45:58;-3.50;99.90
37356;DHT22;48747;50.250;18.848;2022-12-18T00:48:01;-3.50;99.90
37356;DHT22;48747;50.250;18.848;2022-12-18T00:50:04;-3.50;99.90
37356;DHT22;48747;50.250;18.848;2022-12-18T00:52:07;-3.50;99.90
37356;DHT22;48747;50.250;18.848;2022-12-18T00:54:10;-3.50;99.90
37356;DHT22;48747;50.250;18.848;2022-12-18T00:56:13;-3.50;99.90
37356;DHT22;48747;50.250;18.848;2022-12-18T00:58:17;-3.50;99.90
37356;DHT22;48747;50.250;18.848;2022-12-18T01:00:20;-3.50;99.90
37356;DHT22;48747;50.250;18.848;2022-12-18T01:02:24;-3.50;99.90
37356;DHT22;48747;50.250;18.848;2022-12-18T01:04:27;-3.50;99.90
37356;DHT22;48747;50.250;18.848;2022-12-18T01:06:30;-3.50;99.90
37356;DHT22;48747;50.250;18.848;2022-12-18T01:08:33;-3.50;99.90
37356;DHT22;48747;50.250;18.848;2022-12-18T01:10:36;-3.50;99.90
37356;DHT22;48747;50.250;18.848;2022-12-18T01:12:41;-3.50;99.90
37356;DHT22;48747;50.250;18.848;2022-12-18T01:14:44;-3.50;99.90
37356;DHT22;48747;50.250;18.848;2022-12-18T01:16:47;-3.40;99.90
37356;DHT22;48747;50.250;18.848;2022-12-18T01:18:53;-3.40;99.90
37356;DHT22;48747;50.250;18.848;2022-12-18T01:20:57;-3.40;99.90
37356;DHT22;48747;50.250;18.848;2022-12-18T01:23:00;-3.40;99.90
37356;DHT22;48747;50.250;18.848;2022-12-18T01:25:04;-3.40;99.90
37356;DHT22;48747;50.250;18.848;2022-12-18T01:27:08;-3.40;99.90
37356;DHT22;48747;50.250;18.848;2022-12-18T01:29:11;-3.40;99.90
37356;DHT22;48747;50.250;18.848;2022-12-18T01:31:19;-3.30;99.90
37356;DHT22;48747;50.250;18.848;2022-12-18T01:33:23;-3.30;99.90
37356;DHT22;48747;50.250;18.848;2022-12-18T01:35:26;-3.40;99.90
37356;DHT22;48747;50.250;18.848;2022-12-18T01:37:29;-3.40;99.90
37356;DHT22;48747;50.250;18.848;2022-12-18T01:39:32;-3.40;99.90
37356;DHT22;48747;50.250;18.848;2022-12-18T01:41:36;-3.40;99.90
37356;DHT22;48747;50.250;18.848;2022-12-18T01:43:57;-3.40;99.90
37356;DHT22;48747;50.250;18.848;2022-12-18T01:46:00;-3.30;99.90
37356;DHT22;48747;50.250;18.848;2022-12-18T01:48:06;-3.40;99.90
37356;DHT22;48747;50.250;18.848;2022-12-18T01:50:25;-3.40;99.90
37356;DHT22;48747;50.250;18.848;2022-12-18T01:52:30;-3.40;99.90
37356;DHT22;48747;50.250;18.848;2022-12-18T01:54:34;-3.40;99.90
37356;DHT22;48747;50.250;18.848;2022-12-18T01:56:37;-3.40;99.90
37356;DHT22;48747;50.250;18.848;2022-12-18T01:58:46;-3.30;99.90
37356;DHT22;48747;50.250;18.848;2022-12-18T02:00:48;-3.40;99.90
37356;DHT22;48747;50.250;18.848;2022-12-18T02:02:52;-3.30;99.90
37356;DHT22;48747;50.250;18.848;2022-12-18T02:04:55;-3.30;99.90
37356;DHT22;48747;50.250;18.848;2022-12-18T02:07:27;-3.30;99.90
37356;DHT22;48747;50.250;18.848;2022-12-18T02:09:38;-3.30;99.90
37356;DHT22;48747;50.250;18.848;2022-12-18T02:12:06;-3.30;99.90
37356;DHT22;48747;50.250;18.848;2022-12-18T02:16:20;-3.30;99.90
37356;DHT22;48747;50.250;18.848;2022-12-18T02:18:27;-3.30;99.90
37356;DHT22;48747;50.250;18.848;2022-12-18T02:20:36;-3.30;99.90
37356;DHT22;48747;50.250;18.848;2022-12-18T02:25:06;-3.40;99.90
37356;DHT22;48747;50.250;18.848;2022-12-18T02:27:06;-3.30;99.90
37356;DHT22;48747;50.250;18.848;2022-12-18T02:29:18;-3.40;99.90
37356;DHT22;48747;50.250;18.848;2022-12-18T02:31:30;-3.30;99.90
37356;DHT22;48747;50.250;18.848;2022-12-18T02:33:34;-3.30;99.90
37356;DHT22;48747;50.250;18.848;2022-12-18T02:35:39;-3.40;99.90
37356;DHT22;48747;50.250;18.848;2022-12-18T02:37:44;-3.40;99.90
37356;DHT22;48747;50.250;18.848;2022-12-18T02:39:50;-3.40;99.90
37356;DHT22;48747;50.250;18.848;2022-12-18T02:41:57;-3.40;99.90
37356;DHT22;48747;50.250;18.848;2022-12-18T02:44:09;-3.50;99.90
37356;DHT22;48747;50.250;18.848;2022-12-18T02:46:44;-3.60;99.90
37356;DHT22;48747;50.250;18.848;2022-12-18T02:48:48;-3.50;99.90
37356;DHT22;48747;50.250;18.848;2022-12-18T02:57:40;-3.60;99.90
37356;DHT22;48747;50.250;18.848;2022-12-18T02:59:54;-3.60;99.90
37356;DHT22;48747;50.250;18.848;2022-12-18T03:02:06;-3.60;99.90
37356;DHT22;48747;50.250;18.848;2022-12-18T03:04:16;-3.50;99.90
37356;DHT22;48747;50.250;18.848;2022-12-18T03:06:27;-3.50;99.90
37356;DHT22;48747;50.250;18.848;2022-12-18T03:08:34;-3.60;99.90
37356;DHT22;48747;50.250;18.848;2022-12-18T03:10:39;-3.60;99.90
37356;DHT22;48747;50.250;18.848;2022-12-18T03:12:47;-3.60;99.90
37356;DHT22;48747;50.250;18.848;2022-12-18T03:15:10;-3.70;99.90
37356;DHT22;48747;50.250;18.848;2022-12-18T03:17:15;-3.70;99.90
37356;DHT22;48747;50.250;18.848;2022-12-18T03:19:24;-3.70;99.90
37356;DHT22;48747;50.250;18.848;2022-12-18T03:23:45;-3.60;99.90
37356;DHT22;48747;50.250;18.848;2022-12-18T03:25:50;-3.60;99.90
37356;DHT22;48747;50.250;18.848;2022-12-18T03:27:56;-3.60;99.90
37356;DHT22;48747;50.250;18.848;2022-12-18T03:30:03;-3.60;99.90
37356;DHT22;48747;50.250;18.848;2022-12-18T03:32:27;-3.60;99.90
37356;DHT22;48747;50.250;18.848;2022-12-18T03:34:33;-3.60;99.90
37356;DHT22;48747;50.250;18.848;2022-12-18T03:36:32;-3.60;99.90
37356;DHT22;48747;50.250;18.848;2022-12-18T03:38:35;-3.50;99.90
37356;DHT22;48747;50.250;18.848;2022-12-18T03:40:56;-3.60;99.90
37356;DHT22;48747;50.250;18.848;2022-12-18T03:42:50;-3.60;99.90
37356;DHT22;48747;50.250;18.848;2022-12-18T03:44:58;-3.60;99.90
37356;DHT22;48747;50.250;18.848;2022-12-18T03:51:52;-3.60;99.90
37356;DHT22;48747;50.250;18.848;2022-12-18T03:53:59;-3.60;99.90
37356;DHT22;48747;50.250;18.848;2022-12-18T03:56:04;-3.60;99.90
37356;DHT22;48747;50.250;18.848;2022-12-18T03:58:09;-3.60;99.90
37356;DHT22;48747;50.250;18.848;2022-12-18T04:00:15;-3.70;99.90
37356;DHT22;48747;50.250;18.848;2022-12-18T04:02:20;-3.70;99.90
37356;DHT22;48747;50.250;18.848;2022-12-18T04:04:26;-3.60;99.90
37356;DHT22;48747;50.250;18.848;2022-12-18T04:06:30;-3.60;99.90
37356;DHT22;48747;50.250;18.848;2022-12-18T04:08:35;-3.60;99.90
37356;DHT22;48747;50.250;18.848;2022-12-18T04:10:38;-3.60;99.90
37356;DHT22;48747;50.250;18.848;2022-12-18T04:12:42;-3.60;99.90
37356;DHT22;48747;50.250;18.848;2022-12-18T04:14:45;-3.60;99.90
37356;DHT22;48747;50.250;18.848;2022-12-18T04:16:48;-3.70;99.90
37356;DHT22;48747;50.250;18.848;2022-12-18T04:18:53;-3.70;99.90
37356;DHT22;48747;50.250;18.848;2022-12-18T04:20:57;-3.70;99.90
37356;DHT22;48747;50.250;18.848;2022-12-18T04:23:00;-3.60;99.90
37356;DHT22;48747;50.250;18.848;2022-12-18T04:25:04;-3.60;99.90
37356;DHT22;48747;50.250;18.848;2022-12-18T04:27:07;-3.60;99.90
37356;DHT22;48747;50.250;18.848;2022-12-18T04:29:10;-3.60;99.90
37356;DHT22;48747;50.250;18.848;2022-12-18T04:31:13;-3.60;99.90
37356;DHT22;48747;50.250;18.848;2022-12-18T04:33:16;-3.70;99.90
37356;DHT22;48747;50.250;18.848;2022-12-18T04:35:19;-3.70;99.90
37356;DHT22;48747;50.250;18.848;2022-12-18T04:37:22;-3.70;99.90
37356;DHT22;48747;50.250;18.848;2022-12-18T04:39:25;-3.80;99.90
37356;DHT22;48747;50.250;18.848;2022-12-18T04:41:28;-3.80;99.90
37356;DHT22;48747;50.250;18.848;2022-12-18T04:43:31;-3.80;99.90
37356;DHT22;48747;50.250;18.848;2022-12-18T04:45:35;-3.80;99.90
37356;DHT22;48747;50.250;18.848;2022-12-18T04:47:38;-3.70;99.90
37356;DHT22;48747;50.250;18.848;2022-12-18T04:49:41;-3.70;99.90
37356;DHT22;48747;50.250;18.848;2022-12-18T04:51:44;-3.60;99.90
37356;DHT22;48747;50.250;18.848;2022-12-18T04:53:47;-3.60;99.90
37356;DHT22;48747;50.250;18.848;2022-12-18T04:55:50;-3.60;99.90
37356;DHT22;48747;50.250;18.848;2022-12-18T04:57:53;-3.70;99.90
37356;DHT22;48747;50.250;18.848;2022-12-18T04:59:56;-3.70;99.90
37356;DHT22;48747;50.250;18.848;2022-12-18T05:01:59;-3.70;99.90
37356;DHT22;48747;50.250;18.848;2022-12-18T05:04:02;-3.70;99.90
37356;DHT22;48747;50.250;18.848;2022-12-18T05:06:06;-3.70;99.90
37356;DHT22;48747;50.250;18.848;2022-12-18T05:08:09;-3.70;99.90
37356;DHT22;48747;50.250;18.848;2022-12-18T05:10:12;-3.70;99.90
37356;DHT22;48747;50.250;18.848;2022-12-18T05:12:15;-3.70;99.90
37356;DHT22;48747;50.250;18.848;2022-12-18T05:14:19;-3.60;99.90
37356;DHT22;48747;50.250;18.848;2022-12-18T05:16:22;-3.60;99.90
37356;DHT22;48747;50.250;18.848;2022-12-18T05:18:25;-3.60;99.90
37356;DHT22;48747;50.250;18.848;2022-12-18T05:20:29;-3.60;99.90
37356;DHT22;48747;50.250;18.848;2022-12-18T05:22:32;-3.60;99.90
37356;DHT22;48747;50.250;18.848;2022-12-18T05:24:36;-3.60;99.90
37356;DHT22;48747;50.250;18.848;2022-12-18T05:26:39;-3.60;99.90
37356;DHT22;48747;50.250;18.848;2022-12-18T05:28:42;-3.60;99.90
37356;DHT22;48747;50.250;18.848;2022-12-18T05:30:53;-3.60;99.90
37356;DHT22;48747;50.250;18.848;2022-12-18T05:32:56;-3.60;99.90
37356;DHT22;48747;50.250;18.848;2022-12-18T05:34:59;-3.60;99.90
37356;DHT22;48747;50.250;18.848;2022-12-18T05:37:02;-3.60;99.90
37356;DHT22;48747;50.250;18.848;2022-12-18T05:39:05;-3.60;99.90
37356;DHT22;48747;50.250;18.848;2022-12-18T05:41:09;-3.60;99.90
37356;DHT22;48747;50.250;18.848;2022-12-18T05:43:12;-3.70;99.90
37356;DHT22;48747;50.250;18.848;2022-12-18T05:45:15;-3.70;99.90
37356;DHT22;48747;50.250;18.848;2022-12-18T05:47:18;-3.80;99.90
37356;DHT22;48747;50.250;18.848;2022-12-18T05:49:21;-3.80;99.90
37356;DHT22;48747;50.250;18.848;2022-12-18T05:51:24;-3.70;99.90
37356;DHT22;48747;50.250;18.848;2022-12-18T05:53:27;-3.70;99.90
37356;DHT22;48747;50.250;18.848;2022-12-18T05:55:34;-3.60;99.90
37356;DHT22;48747;50.250;18.848;2022-12-18T05:57:37;-3.60;99.90
37356;DHT22;48747;50.250;18.848;2022-12-18T05:59:40;-3.60;99.90
37356;DHT22;48747;50.250;18.848;2022-12-18T06:01:43;-3.70;99.90
37356;DHT22;48747;50.250;18.848;2022-12-18T06:03:46;-3.70;99.90
37356;DHT22;48747;50.250;18.848;2022-12-18T06:05:50;-3.70;99.90
37356;DHT22;48747;50.250;18.848;2022-12-18T06:07:53;-3.70;99.90
37356;DHT22;48747;50.250;18.848;2022-12-18T06:09:56;-3.70;99.90
37356;DHT22;48747;50.250;18.848;2022-12-18T06:11:59;-3.80;99.90
37356;DHT22;48747;50.250;18.848;2022-12-18T06:14:04;-3.80;99.90
37356;DHT22;48747;50.250;18.848;2022-12-18T06:16:07;-3.90;99.90
37356;DHT22;48747;50.250;18.848;2022-12-18T06:18:10;-3.90;99.90
37356;DHT22;48747;50.250;18.848;2022-12-18T06:20:13;-4.00;99.90
37356;DHT22;48747;50.250;18.848;2022-12-18T06:22:16;-3.90;99.90
37356;DHT22;48747;50.250;18.848;2022-12-18T06:24:19;-3.90;99.90
37356;DHT22;48747;50.250;18.848;2022-12-18T06:26:23;-3.90;99.90
37356;DHT22;48747;50.250;18.848;2022-12-18T06:28:26;-3.90;99.90
37356;DHT22;48747;50.250;18.848;2022-12-18T06:30:29;-4.00;99.90
37356;DHT22;48747;50.250;18.848;2022-12-18T06:32:32;-3.90;99.90
37356;DHT22;48747;50.250;18.848;2022-12-18T06:34:39;-3.90;99.90
37356;DHT22;48747;50.250;18.848;2022-12-18T06:36:42;-3.90;99.90
37356;DHT22;48747;50.250;18.848;2022-12-18T06:38:45;-3.90;99.90
37356;DHT22;48747;50.250;18.848;2022-12-18T06:40:48;-4.00;99.90
37356;DHT22;48747;50.250;18.848;2022-12-18T06:42:51;-4.00;99.90
37356;DHT22;48747;50.250;18.848;2022-12-18T06:44:54;-3.90;99.90
37356;DHT22;48747;50.250;18.848;2022-12-18T06:46:57;-3.90;99.90
37356;DHT22;48747;50.250;18.848;2022-12-18T06:49:02;-3.80;99.90
37356;DHT22;48747;50.250;18.848;2022-12-18T06:51:05;-3.80;99.90
37356;DHT22;48747;50.250;18.848;2022-12-18T06:53:13;-3.90;99.90
37356;DHT22;48747;50.250;18.848;2022-12-18T06:55:13;-3.90;99.90
37356;DHT22;48747;50.250;18.848;2022-12-18T06:57:16;-3.80;99.90
37356;DHT22;48747;50.250;18.848;2022-12-18T06:59:20;-3.80;99.90
37356;DHT22;48747;50.250;18.848;2022-12-18T07:01:23;-3.80;99.90
37356;DHT22;48747;50.250;18.848;2022-12-18T07:03:26;-3.70;99.90
37356;DHT22;48747;50.250;18.848;2022-12-18T07:05:29;-3.70;99.90
37356;DHT22;48747;50.250;18.848;2022-12-18T07:07:34;-3.70;99.90
37356;DHT22;48747;50.250;18.848;2022-12-18T07:09:37;-3.70;99.90
37356;DHT22;48747;50.250;18.848;2022-12-18T07:11:40;-3.70;99.90
37356;DHT22;48747;50.250;18.848;2022-12-18T07:13:44;-3.70;99.90
37356;DHT22;48747;50.250;18.848;2022-12-18T07:15:47;-3.70;99.90
37356;DHT22;48747;50.250;18.848;2022-12-18T07:17:50;-3.70;99.90
37356;DHT22;48747;50.250;18.848;2022-12-18T07:19:53;-3.70;99.90
37356;DHT22;48747;50.250;18.848;2022-12-18T07:21:56;-3.70;99.90
37356;DHT22;48747;50.250;18.848;2022-12-18T07:23:59;-3.70;99.90
37356;DHT22;48747;50.250;18.848;2022-12-18T07:26:08;-3.80;99.90
37356;DHT22;48747;50.250;18.848;2022-12-18T07:28:13;-3.70;99.90
37356;DHT22;48747;50.250;18.848;2022-12-18T07:30:16;-3.60;99.90
37356;DHT22;48747;50.250;18.848;2022-12-18T07:32:19;-3.60;99.90
37356;DHT22;48747;50.250;18.848;2022-12-18T07:34:22;-3.60;99.90
37356;DHT22;48747;50.250;18.848;2022-12-18T07:36:25;-3.60;99.90
37356;DHT22;48747;50.250;18.848;2022-12-18T07:38:29;-3.60;99.90
37356;DHT22;48747;50.250;18.848;2022-12-18T07:40:32;-3.70;99.90
37356;DHT22;48747;50.250;18.848;2022-12-18T07:42:37;-3.70;99.90
37356;DHT22;48747;50.250;18.848;2022-12-18T07:44:41;-3.70;99.90
37356;DHT22;48747;50.250;18.848;2022-12-18T07:46:46;-3.70;99.90
37356;DHT22;48747;50.250;18.848;2022-12-18T07:48:49;-3.70;99.90
37356;DHT22;48747;50.250;18.848;2022-12-18T07:50:52;-3.70;99.90
37356;DHT22;48747;50.250;18.848;2022-12-18T07:52:55;-3.70;99.90
37356;DHT22;48747;50.250;18.848;2022-12-18T07:55:00;-3.70;99.90
37356;DHT22;48747;50.250;18.848;2022-12-18T07:57:03;-3.70;99.90
37356;DHT22;48747;50.250;18.848;2022-12-18T07:59:07;-3.60;99.90
37356;DHT22;48747;50.250;18.848;2022-12-18T08:01:11;-3.60;99.90
37356;DHT22;48747;50.250;18.848;2022-12-18T08:03:14;-3.50;99.90
37356;DHT22;48747;50.250;18.848;2022-12-18T08:05:18;-3.50;99.90
37356;DHT22;48747;50.250;18.848;2022-12-18T08:07:22;-3.40;99.90
37356;DHT22;48747;50.250;18.848;2022-12-18T08:09:25;-3.40;99.90
37356;DHT22;48747;50.250;18.848;2022-12-18T08:11:29;-3.40;99.90
37356;DHT22;48747;50.250;18.848;2022-12-18T08:13:32;-3.50;99.90
37356;DHT22;48747;50.250;18.848;2022-12-18T08:15:35;-3.40;99.90
37356;DHT22;48747;50.250;18.848;2022-12-18T08:17:38;-3.40;99.90
37356;DHT22;48747;50.250;18.848;2022-12-18T08:19:42;-3.40;99.90
37356;DHT22;48747;50.250;18.848;2022-12-18T08:21:45;-3.40;99.90
37356;DHT22;48747;50.250;18.848;2022-12-18T08:23:50;-3.30;99.90
37356;DHT22;48747;50.250;18.848;2022-12-18T08:25:53;-3.30;99.90
37356;DHT22;48747;50.250;18.848;2022-12-18T08:27:56;-3.20;99.90
37356;DHT22;48747;50.250;18.848;2022-12-18T08:30:00;-3.20;99.90
37356;DHT22;48747;50.250;18.848;2022-12-18T08:32:03;-3.10;99.90
37356;DHT22;48747;50.250;18.848;2022-12-18T08:34:07;-3.10;99.90
37356;DHT22;48747;50.250;18.848;2022-12-18T08:36:10;-3.20;99.90
37356;DHT22;48747;50.250;18.848;2022-12-18T08:38:13;-3.10;99.90
37356;DHT22;48747;50.250;18.848;2022-12-18T08:40:16;-3.00;99.90
37356;DHT22;48747;50.250;18.848;2022-12-18T08:42:19;-3.00;99.90
37356;DHT22;48747;50.250;18.848;2022-12-18T08:44:41;-3.00;99.90
37356;DHT22;48747;50.250;18.848;2022-12-18T08:46:46;-3.00;99.90
37356;DHT22;48747;50.250;18.848;2022-12-18T08:48:51;-3.10;99.90
37356;DHT22;48747;50.250;18.848;2022-12-18T08:50:56;-3.10;99.90
37356;DHT22;48747;50.250;18.848;2022-12-18T08:53:01;-3.00;99.90
37356;DHT22;48747;50.250;18.848;2022-12-18T08:55:04;-3.00;99.90
37356;DHT22;48747;50.250;18.848;2022-12-18T08:57:08;-3.00;99.90
37356;DHT22;48747;50.250;18.848;2022-12-18T08:59:11;-3.00;99.90
37356;DHT22;48747;50.250;18.848;2022-12-18T09:01:14;-3.00;99.90
37356;DHT22;48747;50.250;18.848;2022-12-18T09:03:18;-2.90;99.90
37356;DHT22;48747;50.250;18.848;2022-12-18T09:05:23;-2.90;99.90
37356;DHT22;48747;50.250;18.848;2022-12-18T09:07:27;-2.80;99.90
37356;DHT22;48747;50.250;18.848;2022-12-18T09:09:30;-2.80;99.90
37356;DHT22;48747;50.250;18.848;2022-12-18T09:11:34;-2.80;99.90
37356;DHT22;48747;50.250;18.848;2022-12-18T09:13:37;-2.90;99.90
37356;DHT22;48747;50.250;18.848;2022-12-18T09:15:42;-2.80;99.90
37356;DHT22;48747;50.250;18.848;2022-12-18T09:17:47;-2.80;99.90
37356;DHT22;48747;50.250;18.848;2022-12-18T09:19:51;-2.70;99.90
37356;DHT22;48747;50.250;18.848;2022-12-18T09:21:54;-2.60;99.90
37356;DHT22;48747;50.250;18.848;2022-12-18T09:23:57;-2.50;99.90
37356;DHT22;48747;50.250;18.848;2022-12-18T09:26:02;-2.40;99.90
37356;DHT22;48747;50.250;18.848;2022-12-18T09:28:12;-2.30;99.90
37356;DHT22;48747;50.250;18.848;2022-12-18T09:30:17;-2.20;99.90
37356;DHT22;48747;50.250;18.848;2022-12-18T09:32:20;-2.20;99.90
37356;DHT22;48747;50.250;18.848;2022-12-18T09:34:23;-2.20;99.90
37356;DHT22;48747;50.250;18.848;2022-12-18T09:36:28;-2.30;99.90
37356;DHT22;48747;50.250;18.848;2022-12-18T09:38:32;-2.30;99.90
37356;DHT22;48747;50.250;18.848;2022-12-18T09:42:53;-2.10;99.90
37356;DHT22;48747;50.250;18.848;2022-12-18T09:44:57;-2.00;99.90
37356;DHT22;48747;50.250;18.848;2022-12-18T09:47:09;-2.00;99.90
37356;DHT22;48747;50.250;18.848;2022-12-18T09:49:19;-1.90;99.90
37356;DHT22;48747;50.250;18.848;2022-12-18T09:51:24;-1.70;99.90
37356;DHT22;48747;50.250;18.848;2022-12-18T09:53:31;-1.70;99.90
37356;DHT22;48747;50.250;18.848;2022-12-18T09:55:40;-1.50;99.90
37356;DHT22;48747;50.250;18.848;2022-12-18T09:57:47;-1.50;99.90
37356;DHT22;48747;50.250;18.848;2022-12-18T09:59:53;-1.50;99.90
37356;DHT22;48747;50.250;18.848;2022-12-18T10:01:56;-1.40;99.90
37356;DHT22;48747;50.250;18.848;2022-12-18T10:04:00;-1.50;99.90
37356;DHT22;48747;50.250;18.848;2022-12-18T10:06:06;-1.50;99.90
37356;DHT22;48747;50.250;18.848;2022-12-18T10:10:51;-1.50;99.90
37356;DHT22;48747;50.250;18.848;2022-12-18T10:15:35;-1.60;99.90
37356;DHT22;48747;50.250;18.848;2022-12-18T10:20:16;-1.40;99.90
37356;DHT22;48747;50.250;18.848;2022-12-18T10:22:57;-1.30;99.90
37356;DHT22;48747;50.250;18.848;2022-12-18T10:27:27;-0.80;99.90
37356;DHT22;48747;50.250;18.848;2022-12-18T10:29:28;-0.70;99.90
37356;DHT22;48747;50.250;18.848;2022-12-18T10:31:31;-0.60;99.90
37356;DHT22;48747;50.250;18.848;2022-12-18T10:33:34;-0.50;99.90
37356;DHT22;48747;50.250;18.848;2022-12-18T10:35:40;-0.40;99.90
37356;DHT22;48747;50.250;18.848;2022-12-18T10:38:02;-0.60;99.90
37356;DHT22;48747;50.250;18.848;2022-12-18T10:40:14;-0.70;99.90
37356;DHT22;48747;50.250;18.848;2022-12-18T10:42:20;-0.90;99.90
37356;DHT22;48747;50.250;18.848;2022-12-18T10:44:24;-1.00;99.90
37356;DHT22;48747;50.250;18.848;2022-12-18T10:46:29;-1.00;99.90
37356;DHT22;48747;50.250;18.848;2022-12-18T10:50:46;-1.20;99.90
37356;DHT22;48747;50.250;18.848;2022-12-18T10:52:58;-1.40;99.90
37356;DHT22;48747;50.250;18.848;2022-12-18T10:55:03;-1.60;99.90
37356;DHT22;48747;50.250;18.848;2022-12-18T10:59:32;-1.90;99.90
37356;DHT22;48747;50.250;18.848;2022-12-18T11:01:51;-2.10;99.90
37356;DHT22;48747;50.250;18.848;2022-12-18T11:03:59;-2.10;99.90
37356;DHT22;48747;50.250;18.848;2022-12-18T11:06:08;-2.10;99.90
37356;DHT22;48747;50.250;18.848;2022-12-18T11:08:19;-2.00;99.90
37356;DHT22;48747;50.250;18.848;2022-12-18T11:10:19;-1.90;99.90
37356;DHT22;48747;50.250;18.848;2022-12-18T11:12:23;-1.70;99.90
37356;DHT22;48747;50.250;18.848;2022-12-18T11:14:34;-1.70;99.90
37356;DHT22;48747;50.250;18.848;2022-12-18T11:16:42;-1.50;99.90
37356;DHT22;48747;50.250;18.848;2022-12-18T11:18:41;-1.40;99.90
37356;DHT22;48747;50.250;18.848;2022-12-18T11:20:53;-1.30;99.90
37356;DHT22;48747;50.250;18.848;2022-12-18T11:23:04;-1.30;99.90
37356;DHT22;48747;50.250;18.848;2022-12-18T11:25:18;-1.40;99.90
37356;DHT22;48747;50.250;18.848;2022-12-18T11:27:22;-1.60;99.90
37356;DHT22;48747;50.250;18.848;2022-12-18T11:29:36;-1.80;99.90
37356;DHT22;48747;50.250;18.848;2022-12-18T11:31:41;-1.90;99.90
37356;DHT22;48747;50.250;18.848;2022-12-18T11:36:08;-2.00;99.90
37356;DHT22;48747;50.250;18.848;2022-12-18T11:38:33;-2.00;99.90
37356;DHT22;48747;50.250;18.848;2022-12-18T11:40:39;-2.00;99.90
37356;DHT22;48747;50.250;18.848;2022-12-18T11:49:45;-1.70;99.90
37356;DHT22;48747;50.250;18.848;2022-12-18T11:52:09;-1.60;99.90
37356;DHT22;48747;50.250;18.848;2022-12-18T11:54:16;-1.70;99.90
37356;DHT22;48747;50.250;18.848;2022-12-18T11:56:30;-1.70;99.90
37356;DHT22;48747;50.250;18.848;2022-12-18T11:58:43;-1.70;99.90
37356;DHT22;48747;50.250;18.848;2022-12-18T12:00:54;-1.80;99.90
37356;DHT22;48747;50.250;18.848;2022-12-18T12:03:12;-1.80;99.90
37356;DHT22;48747;50.250;18.848;2022-12-18T12:05:36;-1.90;99.90
37356;DHT22;48747;50.250;18.848;2022-12-18T12:12:33;-2.00;99.90
37356;DHT22;48747;50.250;18.848;2022-12-18T12:19:38;-2.00;99.90
37356;DHT22;48747;50.250;18.848;2022-12-18T12:21:39;-2.00;99.90
37356;DHT22;48747;50.250;18.848;2022-12-18T12:23:55;-2.10;99.90
37356;DHT22;48747;50.250;18.848;2022-12-18T12:26:26;-2.10;99.90
37356;DHT22;48747;50.250;18.848;2022-12-18T12:28:46;-2.10;99.90
37356;DHT22;48747;50.250;18.848;2022-12-18T12:31:03;-2.20;99.90
37356;DHT22;48747;50.250;18.848;2022-12-18T12:33:18;-2.20;99.90
37356;DHT22;48747;50.250;18.848;2022-12-18T12:35:42;-2.20;99.90
37356;DHT22;48747;50.250;18.848;2022-12-18T12:37:49;-2.20;99.90
37356;DHT22;48747;50.250;18.848;2022-12-18T12:39:51;-2.20;99.90
37356;DHT22;48747;50.250;18.848;2022-12-18T12:41:56;-2.20;99.90
37356;DHT22;48747;50.250;18.848;2022-12-18T12:44:07;-2.20;99.90
37356;DHT22;48747;50.250;18.848;2022-12-18T12:46:19;-2.10;99.90
37356;DHT22;48747;50.250;18.848;2022-12-18T12:50:37;-2.10;99.90
37356;DHT22;48747;50.250;18.848;2022-12-18T12:52:47;-2.20;99.90
37356;DHT22;48747;50.250;18.848;2022-12-18T12:54:50;-2.10;99.90
37356;DHT22;48747;50.250;18.848;2022-12-18T12:59:32;-2.20;99.90
37356;DHT22;48747;50.250;18.848;2022-12-18T13:01:59;-2.20;99.90
37356;DHT22;48747;50.250;18.848;2022-12-18T13:06:49;-2.20;99.90
37356;DHT22;48747;50.250;18.848;2022-12-18T13:08:56;-2.20;99.90
37356;DHT22;48747;50.250;18.848;2022-12-18T13:11:00;-2.20;99.90
37356;DHT22;48747;50.250;18.848;2022-12-18T13:13:20;-2.20;99.90
37356;DHT22;48747;50.250;18.848;2022-12-18T13:15:30;-2.20;99.90
37356;DHT22;48747;50.250;18.848;2022-12-18T13:17:33;-2.20;99.90
37356;DHT22;48747;50.250;18.848;2022-12-18T13:19:36;-2.20;99.90
37356;DHT22;48747;50.250;18.848;2022-12-18T13:21:39;-2.20;99.90
37356;DHT22;48747;50.250;18.848;2022-12-18T13:23:42;-2.30;99.90
37356;DHT22;48747;50.250;18.848;2022-12-18T13:25:45;-2.30;99.90
37356;DHT22;48747;50.250;18.848;2022-12-18T13:32:38;-2.50;99.90
37356;DHT22;48747;50.250;18.848;2022-12-18T13:34:41;-2.50;99.90
37356;DHT22;48747;50.250;18.848;2022-12-18T13:36:44;-2.50;99.90
37356;DHT22;48747;50.250;18.848;2022-12-18T13:39:08;-2.60;99.90
37356;DHT22;48747;50.250;18.848;2022-12-18T13:40:57;-2.60;99.90
37356;DHT22;48747;50.250;18.848;2022-12-18T13:43:01;-2.60;99.90
37356;DHT22;48747;50.250;18.848;2022-12-18T13:45:38;-2.70;99.90
37356;DHT22;48747;50.250;18.848;2022-12-18T13:47:43;-2.60;99.90
37356;DHT22;48747;50.250;18.848;2022-12-18T13:49:47;-2.80;99.90
37356;DHT22;48747;50.250;18.848;2022-12-18T13:51:52;-2.80;99.90
37356;DHT22;48747;50.250;18.848;2022-12-18T13:54:01;-2.80;99.90
37356;DHT22;48747;50.250;18.848;2022-12-18T13:56:05;-2.90;99.90
37356;DHT22;48747;50.250;18.848;2022-12-18T13:58:11;-2.90;99.90
37356;DHT22;48747;50.250;18.848;2022-12-18T14:02:26;-2.90;99.90
37356;DHT22;48747;50.250;18.848;2022-12-18T14:04:31;-3.00;99.90
37356;DHT22;48747;50.250;18.848;2022-12-18T14:06:35;-3.00;99.90
37356;DHT22;48747;50.250;18.848;2022-12-18T14:08:40;-3.10;99.90
37356;DHT22;48747;50.250;18.848;2022-12-18T14:10:45;-3.20;99.90